createdAt,value
2023-04-17T00:00:52.197Z,17.33
2023-04-17T00:02:54.020Z,21.33
2023-04-17T00:04:56.331Z,19.33
2023-04-17T00:07:00.691Z,19.67
2023-04-17T00:09:04.109Z,21.00
2023-04-17T00:11:08.811Z,19.33
2023-04-17T00:13:11.216Z,17.00
2023-04-17T00:15:14.403Z,18.33
2023-04-17T00:17:16.037Z,19.00
2023-04-17T00:19:19.686Z,18.33
2023-04-17T00:21:21.516Z,21.00
2023-04-17T00:23:23.391Z,21.00
2023-04-17T00:25:27.570Z,12.33
2023-04-17T00:27:29.327Z,21.00
2023-04-17T00:29:33.019Z,16.00
2023-04-17T00:31:36.089Z,25.00
2023-04-17T00:33:37.800Z,8.00
2023-04-17T00:35:39.486Z,15.33
2023-04-17T00:37:42.534Z,21.33
2023-04-17T00:39:44.268Z,22.00
2023-04-17T00:41:46.337Z,22.00
2023-04-17T00:43:48.006Z,20.33
2023-04-17T00:45:50.246Z,20.33
2023-04-17T00:47:54.186Z,13.67
2023-04-17T00:49:55.817Z,19.33
2023-04-17T00:51:58.598Z,22.00
2023-04-17T00:54:00.495Z,22.33
2023-04-17T00:56:05.396Z,20.00
2023-04-17T00:58:07.345Z,15.00
2023-04-17T01:00:09.787Z,18.33
2023-04-17T01:02:11.767Z,20.33
2023-04-17T01:04:15.002Z,20.67
2023-04-17T01:06:16.719Z,19.00
2023-04-17T01:08:19.109Z,22.67
2023-04-17T01:10:21.058Z,14.00
2023-04-17T01:12:25.273Z,20.67
2023-04-17T01:14:27.122Z,18.33
2023-04-17T01:16:28.875Z,20.67
2023-04-17T01:18:30.640Z,20.33
2023-04-17T01:20:34.267Z,23.00
2023-04-17T01:22:36.005Z,21.00
2023-04-17T01:24:39.073Z,24.33
2023-04-17T01:26:41.002Z,21.00
2023-04-17T01:28:42.655Z,19.67
2023-04-17T01:30:44.362Z,25.67
2023-04-17T01:32:46.220Z,24.67
2023-04-17T01:34:47.832Z,26.00
2023-04-17T01:36:50.561Z,15.33
2023-04-17T01:38:52.227Z,20.33
2023-04-17T01:40:55.386Z,22.00
2023-04-17T01:42:58.244Z,20.00
2023-04-17T01:45:01.716Z,18.33
2023-04-17T01:47:03.557Z,24.00
2023-04-17T01:49:05.466Z,22.00
2023-04-17T01:51:07.253Z,22.33
2023-04-17T01:53:09.025Z,21.00
2023-04-17T01:55:10.701Z,25.67
2023-04-17T01:57:13.677Z,19.67
2023-04-17T01:59:15.226Z,19.00
2023-04-17T02:01:16.804Z,21.67
2023-04-17T02:03:18.907Z,22.00
2023-04-17T02:05:20.850Z,24.00
2023-04-17T02:07:22.672Z,17.00
2023-04-17T02:09:27.349Z,21.33
2023-04-17T02:11:31.184Z,20.00
2023-04-17T02:13:34.169Z,27.00
2023-04-17T02:15:37.080Z,18.00
2023-04-17T02:17:40.152Z,22.33
2023-04-17T02:19:41.868Z,25.00
2023-04-17T02:21:43.584Z,27.67
2023-04-17T02:23:47.248Z,24.67
2023-04-17T02:25:49.007Z,21.67
2023-04-17T02:27:53.709Z,17.67
2023-04-17T02:29:56.826Z,20.33
2023-04-17T02:31:58.614Z,19.00
2023-04-17T02:34:02.245Z,24.00
2023-04-17T02:36:04.616Z,24.00
2023-04-17T02:38:07.325Z,24.67
2023-04-17T02:40:09.255Z,25.00
2023-04-17T02:42:15.107Z,23.67
2023-04-17T02:44:16.974Z,25.00
2023-04-17T02:46:20.085Z,25.00
2023-04-17T02:48:21.831Z,26.33
2023-04-17T02:50:25.515Z,23.67
2023-04-17T02:52:27.563Z,28.00
2023-04-17T02:54:29.129Z,26.33
2023-04-17T02:56:30.792Z,28.00
2023-04-17T02:58:32.404Z,26.00
2023-04-17T03:00:34.384Z,28.33
2023-04-17T03:02:37.471Z,16.67
2023-04-17T03:04:39.299Z,29.33
2023-04-17T03:06:40.997Z,25.67
2023-04-17T03:08:42.621Z,23.33
2023-04-17T03:10:44.344Z,24.00
2023-04-17T03:12:45.926Z,24.67
2023-04-17T03:14:47.613Z,22.67
2023-04-17T03:16:49.285Z,24.00
2023-04-17T03:18:52.321Z,25.33
2023-04-17T03:20:53.977Z,27.33
2023-04-17T03:22:55.689Z,27.00
2023-04-17T03:24:57.397Z,22.67
2023-04-17T03:26:59.757Z,27.00
2023-04-17T03:29:01.284Z,25.33
2023-04-17T03:31:02.859Z,27.00
2023-04-17T03:33:04.604Z,21.00
2023-04-17T03:35:08.250Z,28.67
2023-04-17T03:37:09.907Z,29.67
2023-04-17T03:39:11.679Z,24.67
2023-04-17T03:41:13.920Z,25.00
2023-04-17T03:43:15.569Z,23.67
2023-04-17T03:45:17.263Z,23.67
2023-04-17T03:47:18.932Z,28.67
2023-04-17T03:49:23.041Z,22.33
2023-04-17T03:51:26.546Z,28.00
2023-04-17T03:53:28.166Z,28.00
2023-04-17T03:55:29.803Z,24.33
2023-04-17T03:57:31.426Z,28.67
2023-04-17T03:59:33.531Z,26.33
2023-04-17T04:01:35.216Z,23.00
2023-04-17T04:03:37.437Z,19.67
2023-04-17T04:05:39.305Z,22.67
2023-04-17T04:07:42.245Z,23.33
2023-04-17T04:09:43.811Z,26.67
2023-04-17T04:11:45.441Z,24.00
2023-04-17T04:13:47.018Z,16.67
2023-04-17T04:15:48.784Z,24.67
2023-04-17T04:17:50.566Z,22.00
2023-04-17T04:19:54.839Z,20.33
2023-04-17T04:21:58.406Z,21.67
2023-04-17T04:24:01.536Z,20.33
2023-04-17T04:26:03.169Z,22.00
2023-04-17T04:28:05.221Z,25.00
2023-04-17T04:30:08.245Z,16.33
2023-04-17T04:32:10.078Z,22.00
2023-04-17T04:34:11.711Z,25.67
2023-04-17T04:36:13.549Z,20.33
2023-04-17T04:38:15.430Z,23.67
2023-04-17T04:40:18.595Z,28.33
2023-04-17T04:42:20.155Z,20.00
2023-04-17T04:44:22.162Z,21.33
2023-04-17T04:46:23.887Z,28.67
2023-04-17T04:48:25.421Z,23.00
2023-04-17T04:50:27.064Z,22.00
2023-04-17T04:52:28.809Z,23.00
2023-04-17T04:54:30.940Z,20.00
2023-04-17T04:56:33.849Z,25.00
2023-04-17T04:58:35.503Z,24.67
2023-04-17T05:00:37.316Z,23.00
2023-04-17T05:02:39.083Z,24.00
2023-04-17T05:04:41.077Z,25.33
2023-04-17T05:06:42.870Z,24.67
2023-04-17T05:08:45.734Z,20.33
2023-04-17T05:10:49.174Z,19.67
2023-04-17T05:12:52.567Z,27.00
2023-04-17T05:14:54.283Z,24.67
2023-04-17T05:16:56.037Z,23.00
2023-04-17T05:18:57.690Z,25.33
2023-04-17T05:20:59.314Z,26.33
2023-04-17T05:23:01.174Z,29.33
2023-04-17T05:25:03.023Z,23.33
2023-04-17T05:27:04.880Z,24.67
2023-04-17T05:29:07.903Z,23.00
2023-04-17T05:31:09.878Z,24.67
2023-04-17T05:33:13.738Z,20.00
2023-04-17T05:35:15.425Z,27.67
2023-04-17T05:37:18.249Z,20.33
2023-04-17T05:39:22.596Z,24.67
2023-04-17T05:41:24.236Z,25.00
2023-04-17T05:43:25.908Z,25.33
2023-04-17T05:45:34.849Z,29.67
2023-04-17T05:47:36.515Z,25.00
2023-04-17T05:49:38.122Z,25.33
2023-04-17T05:51:39.725Z,22.33
2023-04-17T05:53:41.394Z,25.33
2023-04-17T05:55:44.197Z,23.00
2023-04-17T05:57:45.812Z,27.33
2023-04-17T05:59:47.410Z,20.33
2023-04-17T06:01:50.568Z,19.00
2023-04-17T06:03:52.422Z,24.00
2023-04-17T06:05:54.247Z,24.00
2023-04-17T06:07:56.046Z,18.00
2023-04-17T06:09:57.728Z,19.00
2023-04-17T06:11:59.843Z,21.00
2023-04-17T06:14:01.724Z,19.33
2023-04-17T06:16:03.355Z,22.00
2023-04-17T06:18:06.778Z,23.00
2023-04-17T06:20:09.617Z,23.00
2023-04-17T06:22:13.339Z,23.00
2023-04-17T06:24:17.125Z,23.00
2023-04-17T06:26:21.238Z,25.67
2023-04-17T06:28:24.865Z,25.33
2023-04-17T06:30:26.568Z,15.33
2023-04-17T06:32:30.237Z,21.00
2023-04-17T06:34:33.256Z,25.33
2023-04-17T06:36:35.122Z,25.33
2023-04-17T06:38:36.774Z,25.67
2023-04-17T06:40:38.541Z,28.67
2023-04-17T06:42:40.341Z,27.33
2023-04-17T06:44:42.122Z,29.00
2023-04-17T06:46:43.759Z,15.00
2023-04-17T06:48:45.640Z,32.33
2023-04-17T06:50:49.027Z,29.67
2023-04-17T06:52:50.745Z,25.67
2023-04-17T06:54:54.372Z,33.00
2023-04-17T06:56:56.068Z,23.00
2023-04-17T06:58:57.873Z,25.33
2023-04-17T07:00:59.510Z,25.33
2023-04-17T07:03:03.362Z,25.67
2023-04-17T07:05:06.452Z,25.33
2023-04-17T07:07:11.461Z,23.00
2023-04-17T07:09:13.314Z,25.00
2023-04-17T07:11:15.691Z,23.33
2023-04-17T07:13:19.271Z,18.33
2023-04-17T07:15:21.020Z,19.33
2023-04-17T07:17:22.718Z,23.33
2023-04-17T07:19:24.458Z,23.67
2023-04-17T07:21:25.984Z,17.67
2023-04-17T07:23:28.960Z,20.33
2023-04-17T07:25:31.990Z,22.00
2023-04-17T07:27:43.753Z,24.33
2023-04-17T07:29:45.366Z,19.67
2023-04-17T07:31:46.987Z,21.00
2023-04-17T07:33:48.725Z,26.33
2023-04-17T07:35:50.365Z,24.00
2023-04-17T07:37:54.442Z,21.00
2023-04-17T07:39:59.804Z,20.33
2023-04-17T07:42:01.454Z,17.33
2023-04-17T07:44:03.215Z,22.33
2023-04-17T07:46:05.457Z,24.33
2023-04-17T07:48:07.137Z,20.33
2023-04-17T07:53:23.374Z,13.67
2023-04-17T07:55:26.916Z,26.00
2023-04-17T07:57:28.892Z,22.67
2023-04-17T07:59:30.830Z,19.00
2023-04-17T08:01:32.533Z,22.00
2023-04-17T08:03:34.513Z,14.00
2023-04-17T08:05:36.519Z,17.67
2023-04-17T08:07:38.260Z,18.33
2023-04-17T08:09:41.534Z,3.00
2023-04-17T08:11:56.315Z,20.67
2023-04-17T08:13:58.908Z,17.67
2023-04-17T08:16:00.525Z,19.00
2023-04-17T08:18:02.360Z,16.33
2023-04-17T08:20:04.886Z,18.33
2023-04-17T08:22:06.506Z,14.33
2023-04-17T08:24:08.306Z,18.67
2023-04-17T08:26:11.388Z,22.33
2023-04-17T08:28:14.368Z,18.33
2023-04-17T08:30:19.336Z,20.00
2023-04-17T08:32:21.416Z,17.67
2023-04-17T08:34:23.178Z,13.00
2023-04-17T08:36:25.055Z,15.50
2023-04-17T08:38:26.702Z,8.00
2023-04-17T08:40:28.423Z,14.00
2023-04-17T08:42:31.590Z,11.33
2023-04-17T08:44:35.035Z,17.67
2023-04-17T08:46:40.995Z,20.00
2023-04-17T08:48:45.556Z,18.00
2023-04-17T08:50:51.777Z,14.67
2023-04-17T08:52:53.350Z,14.33
2023-04-17T08:54:55.178Z,13.50
2023-04-17T08:56:56.975Z,13.75
2023-04-17T08:59:00.756Z,16.33
2023-04-17T09:01:10.732Z,10.50
2023-04-17T09:03:16.980Z,15.67
2023-04-17T09:05:19.809Z,15.00
2023-04-17T09:07:35.303Z,14.25
2023-04-17T09:09:47.303Z,11.25
2023-04-17T09:12:09.966Z,16.50
2023-04-17T09:14:29.420Z,13.50
2023-04-17T09:16:32.512Z,14.50
2023-04-17T09:18:36.167Z,12.25
2023-04-17T09:20:48.770Z,14.50
2023-04-17T09:22:59.417Z,10.25
2023-04-17T09:25:01.537Z,11.75
2023-04-17T09:27:21.255Z,11.75
2023-04-17T09:29:22.911Z,10.75
2023-04-17T09:31:26.846Z,10.00
2023-04-17T09:33:29.895Z,10.00
2023-04-17T09:35:31.958Z,9.50
2023-04-17T09:37:49.214Z,9.00
2023-04-17T09:39:58.317Z,10.25
2023-04-17T09:42:03.758Z,11.00
2023-04-17T09:44:06.192Z,11.50
2023-04-17T09:46:09.011Z,12.25
2023-04-17T09:48:12.449Z,11.00
2023-04-17T09:50:18.413Z,8.00
2023-04-17T09:52:21.274Z,11.00
2023-04-17T09:54:23.485Z,10.00
2023-04-17T09:56:25.658Z,11.75
2023-04-17T09:58:30.048Z,11.00
2023-04-17T10:00:31.847Z,10.00
2023-04-17T10:02:34.139Z,10.50
2023-04-17T10:04:39.394Z,11.75
2023-04-17T10:06:42.909Z,12.75
2023-04-17T10:08:44.552Z,8.50
2023-04-17T10:10:46.960Z,10.75
2023-04-17T10:12:50.632Z,9.25
2023-04-17T10:14:52.662Z,9.25
2023-04-17T10:16:54.497Z,11.50
2023-04-17T10:19:30.104Z,10.00
2023-04-17T10:21:31.738Z,10.25
2023-04-17T10:23:35.347Z,12.50
2023-04-17T10:25:37.154Z,12.25
2023-04-17T10:27:50.527Z,12.00
2023-04-17T10:29:55.175Z,11.00
2023-04-17T10:32:15.933Z,11.00
2023-04-17T10:34:36.230Z,11.25
2023-04-17T10:36:52.846Z,12.25
2023-04-17T10:39:13.366Z,11.25
2023-04-17T10:41:19.628Z,12.00
2023-04-17T10:43:21.243Z,12.00
2023-04-17T10:45:57.779Z,11.00
2023-04-17T10:47:59.637Z,10.50
2023-04-17T10:50:03.336Z,10.75
2023-04-17T10:52:06.954Z,13.00
2023-04-17T10:54:10.349Z,14.00
2023-04-17T10:56:17.643Z,9.75
2023-04-17T10:58:19.284Z,12.25
2023-04-17T11:00:29.738Z,11.50
2023-04-17T11:02:33.954Z,12.25
2023-04-17T11:04:35.957Z,12.25
2023-04-17T11:06:39.650Z,11.25
2023-04-17T11:08:42.296Z,10.00
2023-04-17T11:10:45.971Z,12.25
2023-04-17T11:12:48.244Z,11.25
2023-04-17T11:14:49.977Z,11.75
2023-04-17T11:16:52.341Z,11.00
2023-04-17T11:18:53.933Z,11.00
2023-04-17T11:20:56.588Z,12.75
2023-04-17T11:23:01.218Z,11.75
2023-04-17T11:25:02.886Z,12.50
2023-04-17T11:27:07.036Z,9.25
2023-04-17T11:29:14.182Z,12.50
2023-04-17T11:31:18.615Z,10.50
2023-04-17T11:33:21.459Z,11.50
2023-04-17T11:35:27.731Z,13.50
2023-04-17T11:37:30.637Z,9.50
2023-04-17T11:39:34.216Z,12.75
2023-04-17T11:41:36.662Z,10.75
2023-04-17T11:43:40.056Z,12.50
2023-04-17T11:45:43.981Z,11.75
2023-04-17T11:47:47.396Z,11.75
2023-04-17T11:49:49.109Z,11.00
2023-04-17T11:51:51.040Z,9.00
2023-04-17T11:53:54.241Z,14.50
2023-04-17T11:56:11.067Z,13.25
2023-04-17T11:58:14.177Z,11.50
2023-04-17T12:00:18.602Z,12.50
2023-04-17T12:02:35.091Z,10.75
2023-04-17T12:04:40.092Z,12.75
2023-04-17T12:06:42.306Z,11.25
2023-04-17T12:08:46.512Z,13.75
2023-04-17T12:10:48.383Z,14.00
2023-04-17T12:12:51.664Z,11.50
2023-04-17T12:14:53.489Z,15.75
2023-04-17T12:16:56.572Z,13.00
2023-04-17T12:19:00.792Z,10.25
2023-04-17T12:21:02.852Z,13.75
2023-04-17T12:23:06.623Z,10.00
2023-04-17T12:25:09.225Z,15.00
2023-04-17T12:27:12.822Z,10.75
2023-04-17T12:29:14.601Z,12.75
2023-04-17T12:31:16.431Z,12.00
2023-04-17T12:33:19.530Z,15.00
2023-04-17T12:35:27.739Z,16.75
2023-04-17T12:37:29.502Z,12.75
2023-04-17T12:39:31.343Z,13.75
2023-04-17T12:41:33.100Z,13.00
2023-04-17T12:43:36.050Z,13.00
2023-04-17T12:45:39.873Z,15.75
2023-04-17T12:47:44.021Z,15.50
2023-04-17T12:49:47.088Z,15.00
2023-04-17T12:51:49.116Z,18.00
2023-04-17T12:53:51.092Z,16.75
2023-04-17T12:55:54.073Z,28.00
2023-04-17T12:57:55.891Z,17.25
2023-04-17T12:59:57.949Z,23.50
2023-04-17T13:01:59.841Z,25.75
2023-04-17T13:04:02.874Z,23.25
2023-04-17T13:06:06.759Z,23.25
2023-04-17T13:08:09.834Z,20.00
2023-04-17T13:10:11.650Z,21.50
2023-04-17T13:12:15.459Z,25.75
2023-04-17T13:14:22.836Z,21.00
2023-04-17T13:16:24.634Z,28.75
2023-04-17T13:18:26.591Z,22.00
2023-04-17T13:20:28.391Z,25.25
2023-04-17T13:22:31.380Z,24.25
2023-04-17T13:24:33.486Z,25.25
2023-04-17T13:26:38.470Z,23.00
2023-04-17T13:28:42.254Z,22.00
2023-04-17T13:30:45.727Z,12.50
2023-04-17T13:32:47.456Z,24.25
2023-04-17T13:34:49.153Z,23.75
2023-04-17T13:36:50.708Z,20.50
2023-04-17T13:38:53.780Z,20.75
2023-04-17T13:40:56.758Z,21.75
2023-04-17T13:42:58.611Z,23.75
2023-04-17T13:45:00.513Z,27.50
2023-04-17T13:47:02.223Z,26.75
2023-04-17T13:49:03.805Z,22.25
2023-04-17T13:51:05.462Z,20.50
2023-04-17T13:53:08.520Z,26.00
2023-04-17T13:55:13.248Z,19.25
2023-04-17T13:57:15.021Z,22.00
2023-04-17T13:59:16.662Z,23.75
2023-04-17T14:01:19.723Z,21.75
2023-04-17T14:03:23.512Z,25.50
2023-04-17T14:05:25.187Z,23.25
2023-04-17T14:07:27.161Z,22.25
2023-04-17T14:09:28.822Z,22.25
2023-04-17T14:11:31.824Z,24.00
2023-04-17T14:13:35.279Z,23.00
2023-04-17T14:15:40.203Z,20.75
2023-04-17T14:17:42.478Z,19.75
2023-04-17T14:19:46.200Z,19.75
2023-04-17T14:21:47.864Z,18.75
2023-04-17T14:23:49.430Z,22.75
2023-04-17T14:25:53.219Z,18.75
2023-04-17T14:27:56.376Z,21.50
2023-04-17T14:30:01.474Z,16.50
2023-04-17T14:32:03.506Z,19.00
2023-04-17T14:34:05.113Z,21.25
2023-04-17T14:36:09.938Z,18.00
2023-04-17T14:38:12.310Z,19.50
2023-04-17T14:40:14.149Z,18.50
2023-04-17T14:42:15.705Z,20.50
2023-04-17T14:44:18.687Z,20.50
2023-04-17T14:46:21.453Z,20.00
2023-04-17T14:48:29.151Z,22.25
2023-04-17T14:50:30.886Z,21.50
2023-04-17T14:52:35.546Z,20.25
2023-04-17T14:54:37.234Z,18.75
2023-04-17T14:56:39.597Z,20.00
2023-04-17T14:58:41.162Z,15.75
2023-04-17T15:00:44.173Z,22.00
2023-04-17T15:02:47.726Z,20.00
2023-04-17T15:04:50.790Z,21.25
2023-04-17T15:06:52.350Z,21.75
2023-04-17T15:08:56.453Z,21.75
2023-04-17T15:10:58.340Z,21.25
2023-04-17T15:13:00.148Z,21.00
2023-04-17T15:15:01.862Z,18.50
2023-04-17T15:17:05.074Z,26.50
2023-04-17T15:19:06.772Z,17.75
2023-04-17T15:21:08.675Z,23.75
2023-04-17T15:23:10.455Z,18.00
2023-04-17T15:25:12.243Z,19.50
2023-04-17T15:27:13.836Z,27.00
2023-04-17T15:29:15.504Z,22.00
2023-04-17T15:31:17.161Z,13.00
2023-04-17T15:33:20.112Z,22.50
2023-04-17T15:35:21.624Z,21.75
2023-04-17T15:37:23.113Z,20.25
2023-04-17T15:39:24.767Z,25.50
2023-04-17T15:41:26.624Z,22.00
2023-04-17T15:43:28.299Z,22.00
2023-04-17T15:45:31.101Z,20.50
2023-04-17T15:47:32.992Z,19.25
2023-04-17T15:49:37.783Z,20.50
2023-04-17T15:51:41.832Z,21.00
2023-04-17T15:53:43.394Z,20.25
2023-04-17T15:55:46.861Z,18.00
2023-04-17T15:57:48.525Z,22.75
2023-04-17T15:59:50.103Z,23.25
2023-04-17T16:01:51.900Z,21.25
2023-04-17T16:03:53.980Z,23.75
2023-04-17T16:05:59.149Z,23.25
2023-04-17T16:08:02.515Z,24.50
2023-04-17T16:10:07.706Z,24.00
2023-04-17T16:12:10.169Z,22.00
2023-04-17T16:14:11.840Z,21.75
2023-04-17T16:16:14.882Z,23.25
2023-04-17T16:18:20.157Z,24.00
2023-04-17T16:20:22.182Z,24.50
2023-04-17T16:22:25.154Z,22.50
2023-04-17T16:24:29.794Z,23.00
2023-04-17T16:26:31.414Z,19.75
2023-04-17T16:28:33.417Z,22.00
2023-04-17T16:30:35.046Z,24.25
2023-04-17T16:32:36.741Z,27.75
2023-04-17T16:34:39.723Z,24.00
2023-04-17T16:36:45.156Z,23.00
2023-04-17T16:38:48.606Z,24.50
2023-04-17T16:40:50.136Z,22.00
2023-04-17T16:42:53.179Z,18.75
2023-04-17T16:44:54.827Z,22.75
2023-04-17T16:47:12.045Z,24.00
2023-04-17T16:49:15.063Z,23.00
2023-04-17T16:51:17.089Z,24.00
2023-04-17T16:53:18.795Z,24.50
2023-04-17T16:55:23.817Z,24.50
2023-04-17T16:57:25.420Z,25.00
2023-04-17T16:59:26.939Z,19.00
2023-04-17T17:01:28.778Z,27.00
2023-04-17T17:03:30.743Z,26.00
2023-04-17T17:05:32.412Z,21.33
2023-04-17T17:07:36.439Z,23.67
2023-04-17T17:09:38.307Z,22.50
2023-04-17T17:11:43.108Z,19.50
2023-04-17T17:13:47.880Z,22.50
2023-04-17T17:15:49.458Z,16.67
2023-04-17T17:17:51.075Z,24.33
2023-04-17T17:19:52.936Z,23.00
2023-04-17T17:21:56.684Z,22.33
2023-04-17T17:23:58.734Z,22.00
2023-04-17T17:26:00.700Z,24.33
2023-04-17T17:28:03.692Z,21.25
2023-04-17T17:30:06.539Z,24.25
2023-04-17T17:32:08.221Z,24.00
2023-04-17T17:34:25.525Z,17.00
2023-04-17T17:36:28.621Z,24.75
2023-04-17T17:38:30.303Z,25.75
2023-04-17T17:40:31.937Z,21.75
2023-04-17T17:42:34.072Z,18.75
2023-04-17T17:44:37.221Z,20.00
2023-04-17T17:46:39.018Z,20.75
2023-04-17T17:48:40.681Z,20.33
2023-04-17T17:50:42.563Z,22.00
2023-04-17T17:52:44.279Z,17.50
2023-04-17T17:54:45.928Z,18.00
2023-04-17T17:56:47.632Z,18.00
2023-04-17T17:58:49.735Z,21.00
2023-04-17T18:00:58.513Z,17.33
2023-04-17T18:03:00.804Z,20.00
2023-04-17T18:05:03.103Z,19.00
2023-04-17T18:07:04.833Z,15.25
2023-04-17T18:09:06.501Z,15.75
2023-04-17T18:11:08.081Z,15.50
2023-04-17T18:13:09.918Z,15.75
2023-04-17T18:15:13.400Z,16.00
2023-04-17T18:17:19.093Z,17.75
2023-04-17T18:19:22.873Z,15.25
2023-04-17T18:21:24.489Z,13.00
2023-04-17T18:23:26.237Z,15.00
2023-04-17T18:25:28.404Z,16.00
2023-04-17T18:27:30.175Z,13.67
2023-04-17T18:29:33.151Z,15.00
2023-04-17T18:31:34.820Z,16.33
2023-04-17T18:33:37.934Z,15.33
2023-04-17T18:35:39.579Z,19.00
2023-04-17T18:37:41.179Z,13.00
2023-04-17T18:39:42.979Z,18.00
2023-04-17T18:41:46.877Z,16.33
2023-04-17T18:43:50.218Z,15.33
2023-04-17T18:45:52.241Z,11.67
2023-04-17T18:47:53.840Z,16.33
2023-04-17T18:49:56.917Z,17.00
2023-04-17T18:51:58.894Z,16.33
2023-04-17T18:54:00.539Z,17.00
2023-04-17T18:56:02.139Z,16.33
2023-04-17T18:58:04.149Z,19.00
2023-04-17T19:00:06.931Z,18.00
2023-04-17T19:02:08.590Z,15.00
2023-04-17T19:04:10.322Z,15.00
2023-04-17T19:06:13.394Z,18.00
2023-04-17T19:08:15.118Z,16.67
2023-04-17T19:10:16.835Z,13.00
2023-04-17T19:12:21.043Z,19.33
2023-04-17T19:14:24.858Z,21.33
2023-04-17T19:16:26.808Z,18.33
2023-04-17T19:18:30.498Z,17.00
2023-04-17T19:20:34.072Z,19.67
2023-04-17T19:22:36.940Z,18.33
2023-04-17T19:24:38.551Z,19.00
2023-04-17T19:26:40.176Z,17.33
2023-04-17T19:28:41.718Z,14.00
2023-04-17T19:30:47.821Z,17.00
2023-04-17T19:32:51.205Z,16.33
2023-04-17T19:34:54.515Z,16.67
2023-04-17T19:36:56.416Z,16.33
2023-04-17T19:38:59.422Z,9.67
2023-04-17T19:41:12.394Z,14.67
2023-04-17T19:43:14.134Z,13.33
2023-04-17T19:45:15.801Z,17.67
2023-04-17T19:47:17.491Z,20.67
2023-04-17T19:49:19.103Z,15.67
2023-04-17T19:51:20.825Z,18.00
2023-04-17T19:53:22.340Z,15.33
2023-04-17T19:55:25.327Z,13.33
2023-04-17T19:57:27.062Z,15.33
2023-04-17T19:59:28.708Z,17.00
2023-04-17T20:01:31.223Z,12.33
2023-04-17T20:03:33.253Z,14.00
2023-04-17T20:05:35.110Z,14.00
2023-04-17T20:07:37.009Z,14.00
2023-04-17T20:09:38.631Z,6.00
2023-04-17T20:11:41.611Z,15.33
2023-04-17T20:13:43.428Z,12.00
2023-04-17T20:15:45.093Z,12.00
2023-04-17T20:17:46.666Z,12.00
2023-04-17T20:19:48.223Z,12.67
2023-04-17T20:21:49.786Z,12.33
2023-04-17T20:23:51.379Z,9.67
2023-04-17T20:25:53.221Z,12.33
2023-04-17T20:27:56.424Z,12.00
2023-04-17T20:29:58.237Z,13.00
2023-04-17T20:32:01.849Z,11.33
2023-04-17T20:34:05.168Z,10.33
2023-04-17T20:36:06.911Z,11.00
2023-04-17T20:38:08.458Z,11.00
2023-04-17T20:40:11.038Z,11.00
2023-04-17T20:42:12.806Z,12.33
2023-04-17T20:44:15.721Z,16.67
2023-04-17T20:46:17.407Z,11.33
2023-04-17T20:48:19.185Z,10.33
2023-04-17T20:50:21.030Z,12.00
2023-04-17T20:52:22.793Z,9.00
2023-04-17T20:54:24.694Z,11.33
2023-04-17T20:56:26.361Z,8.00
2023-04-17T20:58:28.018Z,9.00
2023-04-17T21:00:33.092Z,11.33
2023-04-17T21:02:39.266Z,10.33
2023-04-17T21:04:40.861Z,8.33
2023-04-17T21:06:42.704Z,11.00
2023-04-17T21:08:46.134Z,11.00
2023-04-17T21:10:49.581Z,12.33
2023-04-17T21:12:52.432Z,8.00
2023-04-17T21:14:54.128Z,10.33
2023-04-17T21:16:57.053Z,12.00
2023-04-17T21:18:58.620Z,9.00
2023-04-17T21:21:00.285Z,8.67
2023-04-17T21:23:01.937Z,9.67
2023-04-17T21:25:04.016Z,12.00
2023-04-17T21:27:06.161Z,8.00
2023-04-17T21:29:07.984Z,9.67
2023-04-17T21:31:13.949Z,12.00
2023-04-17T21:33:16.933Z,9.33
2023-04-17T21:35:18.554Z,12.00
2023-04-17T21:37:20.205Z,13.00
2023-04-17T21:39:22.283Z,15.67
2023-04-17T21:41:23.919Z,13.33
2023-04-17T21:43:25.772Z,12.67
2023-04-17T21:45:27.676Z,14.33
2023-04-17T21:47:29.315Z,12.33
2023-04-17T21:49:32.273Z,11.33
2023-04-17T21:51:34.073Z,10.67
2023-04-17T21:53:36.696Z,11.00
2023-04-17T21:55:38.662Z,11.00
2023-04-17T21:57:40.542Z,12.33
2023-04-17T21:59:42.076Z,13.67
2023-04-17T22:01:43.897Z,8.00
2023-04-17T22:03:45.482Z,11.67
2023-04-17T22:05:49.583Z,7.00
2023-04-17T22:07:55.055Z,10.67
2023-04-17T22:09:57.109Z,9.00
2023-04-17T22:11:58.791Z,12.00
2023-04-17T22:14:00.383Z,10.00
2023-04-17T22:16:02.503Z,9.00
2023-04-17T22:18:04.478Z,11.00
2023-04-17T22:20:07.610Z,11.00
2023-04-17T22:22:10.568Z,12.67
2023-04-17T22:24:12.578Z,7.67
2023-04-17T22:26:14.306Z,12.00
2023-04-17T22:28:15.827Z,9.67
2023-04-17T22:30:17.420Z,10.33
2023-04-17T22:32:18.993Z,11.00
2023-04-17T22:34:20.898Z,6.67
2023-04-17T22:36:22.946Z,12.33
2023-04-17T22:38:26.297Z,11.67
2023-04-17T22:40:27.880Z,11.00
2023-04-17T22:42:29.440Z,7.67
2023-04-17T22:44:31.006Z,8.33
2023-04-17T22:46:32.685Z,9.67
2023-04-17T22:48:34.412Z,7.67
2023-04-17T22:50:36.710Z,6.00
2023-04-17T22:52:40.280Z,10.33
2023-04-17T22:54:43.237Z,9.33
2023-04-17T22:56:44.825Z,9.33
2023-04-17T22:58:46.456Z,7.33
2023-04-17T23:00:48.132Z,10.00
2023-04-17T23:02:49.933Z,10.00
2023-04-17T23:04:51.672Z,8.00
2023-04-17T23:06:53.242Z,8.67
2023-04-17T23:08:54.741Z,10.33
2023-04-17T23:10:58.499Z,11.00
2023-04-17T23:13:00.138Z,7.00
2023-04-17T23:15:01.748Z,10.67
2023-04-17T23:17:03.769Z,9.33
2023-04-17T23:19:05.540Z,11.00
2023-04-17T23:21:07.575Z,8.00
2023-04-17T23:23:13.858Z,8.00
2023-04-17T23:25:16.701Z,7.00
2023-04-17T23:27:20.197Z,8.00
2023-04-17T23:29:21.864Z,4.33
2023-04-17T23:31:23.536Z,5.00
2023-04-17T23:33:25.151Z,8.00
2023-04-17T23:35:26.695Z,7.67
2023-04-17T23:37:28.357Z,8.67
2023-04-17T23:39:29.923Z,11.33
2023-04-17T23:41:31.555Z,6.67
2023-04-17T23:43:34.397Z,2.00
2023-04-17T23:45:36.113Z,6.00
2023-04-17T23:47:38.216Z,10.00
2023-04-17T23:49:41.525Z,7.00
2023-04-17T23:51:43.386Z,8.67
2023-04-17T23:53:48.657Z,7.67
2023-04-17T23:55:53.150Z,8.00
2023-04-17T23:57:55.624Z,5.67
2023-04-17T23:59:58.534Z,8.00
